createdAt,value
2018-04-16T00:00:38.396Z,15.90
2018-04-16T00:01:38.255Z,15.90
2018-04-16T00:02:38.343Z,15.90
2018-04-16T00:03:38.311Z,15.90
2018-04-16T00:04:38.344Z,15.90
2018-04-16T00:05:38.275Z,15.90
2018-04-16T00:06:38.391Z,15.90
2018-04-16T00:07:38.306Z,18.80
2018-04-16T00:08:38.312Z,18.80
2018-04-16T00:09:38.343Z,18.80
2018-04-16T00:10:38.340Z,18.80
2018-04-16T00:11:38.266Z,18.80
2018-04-16T00:12:38.305Z,18.80
2018-04-16T00:13:38.265Z,18.80
2018-04-16T00:14:38.347Z,18.80
2018-04-16T00:15:38.312Z,18.80
2018-04-16T00:16:38.270Z,18.80
2018-04-16T00:17:38.317Z,15.99
2018-04-16T00:18:38.347Z,15.99
2018-04-16T00:19:38.366Z,15.99
2018-04-16T00:20:38.380Z,15.99
2018-04-16T00:21:38.308Z,15.99
2018-04-16T00:22:38.355Z,15.99
2018-04-16T00:23:38.308Z,15.99
2018-04-16T00:24:38.344Z,15.99
2018-04-16T00:25:38.256Z,15.99
2018-04-16T00:26:38.329Z,15.99
2018-04-16T00:27:38.372Z,15.80
2018-04-16T00:28:38.322Z,15.80
2018-04-16T00:29:38.291Z,15.80
2018-04-16T00:30:38.312Z,15.80
2018-04-16T00:31:38.380Z,15.80
2018-04-16T00:32:38.277Z,15.80
2018-04-16T00:33:38.351Z,15.80
2018-04-16T00:34:38.320Z,15.80
2018-04-16T00:35:38.330Z,15.80
2018-04-16T00:36:38.358Z,15.80
2018-04-16T00:37:38.354Z,15.20
2018-04-16T00:38:38.422Z,15.20
2018-04-16T00:39:38.353Z,15.20
2018-04-16T00:40:38.384Z,15.20
2018-04-16T00:41:38.366Z,15.20
2018-04-16T00:42:38.268Z,15.20
2018-04-16T00:43:38.321Z,15.20
2018-04-16T00:44:38.264Z,15.20
2018-04-16T00:45:38.324Z,15.20
2018-04-16T00:46:38.389Z,15.20
2018-04-16T00:47:38.384Z,18.80
2018-04-16T00:48:38.371Z,18.80
2018-04-16T00:49:38.291Z,18.80
2018-04-16T00:50:38.341Z,18.80
2018-04-16T00:51:38.388Z,18.80
2018-04-16T00:52:38.332Z,18.80
2018-04-16T00:53:38.389Z,18.80
2018-04-16T00:54:38.369Z,18.80
2018-04-16T00:55:38.304Z,18.80
2018-04-16T00:56:38.366Z,18.80
2018-04-16T00:57:38.286Z,19.00
2018-04-16T00:58:38.361Z,19.00
2018-04-16T00:59:38.286Z,19.00
2018-04-16T01:00:38.360Z,19.00
2018-04-16T01:01:38.290Z,19.00
2018-04-16T01:02:38.365Z,19.00
2018-04-16T01:03:38.311Z,19.00
2018-04-16T01:04:38.363Z,19.00
2018-04-16T01:05:38.297Z,19.00
2018-04-16T01:06:38.366Z,19.00
2018-04-16T01:07:38.294Z,19.00
2018-04-16T01:08:38.369Z,16.50
2018-04-16T01:09:38.301Z,16.50
2018-04-16T01:10:38.415Z,16.50
2018-04-16T01:11:38.297Z,16.50
2018-04-16T01:12:38.368Z,16.50
2018-04-16T01:13:38.299Z,16.50
2018-04-16T01:14:38.370Z,16.50
2018-04-16T01:15:38.300Z,16.50
2018-04-16T01:16:38.374Z,16.50
2018-04-16T01:17:38.308Z,16.50
2018-04-16T01:18:38.300Z,17.90
2018-04-16T01:19:38.438Z,17.90
2018-04-16T01:20:38.385Z,17.90
2018-04-16T01:21:38.288Z,17.90
2018-04-16T01:22:38.384Z,17.90
2018-04-16T01:23:38.439Z,17.90
2018-04-16T01:24:38.414Z,17.90
2018-04-16T01:25:38.313Z,17.90
2018-04-16T01:26:38.321Z,17.90
2018-04-16T01:27:38.414Z,17.90
2018-04-16T01:28:38.309Z,19.00
2018-04-16T01:29:38.381Z,19.00
2018-04-16T01:30:38.312Z,19.00
2018-04-16T01:31:38.387Z,19.00
2018-04-16T01:32:38.309Z,19.00
2018-04-16T01:33:38.382Z,19.00
2018-04-16T01:34:38.309Z,19.00
2018-04-16T01:35:38.387Z,19.00
2018-04-16T01:36:38.390Z,19.00
2018-04-16T01:37:38.314Z,19.00
2018-04-16T01:38:38.354Z,20.30
2018-04-16T01:39:38.324Z,20.30
2018-04-16T01:40:38.416Z,20.30
2018-04-16T01:41:38.399Z,20.30
2018-04-16T01:42:38.373Z,20.30
2018-04-16T01:43:38.393Z,20.30
2018-04-16T01:44:38.395Z,20.30
2018-04-16T01:45:38.383Z,20.30
2018-04-16T01:46:38.320Z,20.30
2018-04-16T01:47:38.398Z,20.30
2018-04-16T01:48:38.329Z,22.00
2018-04-16T01:49:38.407Z,22.00
2018-04-16T01:50:38.346Z,22.00
2018-04-16T01:51:38.405Z,22.00
2018-04-16T01:52:38.333Z,22.00
2018-04-16T01:53:38.406Z,22.00
2018-04-16T01:54:38.411Z,22.00
2018-04-16T01:55:38.338Z,22.00
2018-04-16T01:56:38.337Z,22.00
2018-04-16T01:57:38.410Z,22.00
2018-04-16T01:58:38.466Z,20.80
2018-04-16T01:59:38.327Z,20.80
2018-04-16T02:00:38.469Z,20.80
2018-04-16T02:01:38.427Z,20.80
2018-04-16T02:02:38.414Z,20.80
2018-04-16T02:03:38.428Z,20.80
2018-04-16T02:04:38.390Z,20.80
2018-04-16T02:05:38.328Z,20.80
2018-04-16T02:06:38.472Z,20.80
2018-04-16T02:07:38.336Z,20.80
2018-04-16T02:08:38.447Z,24.80
2018-04-16T02:09:38.375Z,24.80
2018-04-16T02:10:38.445Z,24.80
2018-04-16T02:11:38.336Z,24.80
2018-04-16T02:12:38.444Z,24.80
2018-04-16T02:13:38.430Z,24.80
2018-04-16T02:14:38.415Z,24.80
2018-04-16T02:15:38.440Z,24.80
2018-04-16T02:16:38.430Z,24.80
2018-04-16T02:17:38.426Z,24.80
2018-04-16T02:18:38.335Z,24.30
2018-04-16T02:19:38.421Z,24.30
2018-04-16T02:20:38.321Z,24.30
2018-04-16T02:21:38.501Z,24.30
2018-04-16T02:22:38.443Z,24.30
2018-04-16T02:23:38.338Z,24.30
2018-04-16T02:24:38.353Z,24.30
2018-04-16T02:25:38.357Z,24.30
2018-04-16T02:26:38.429Z,24.30
2018-04-16T02:27:38.398Z,24.30
2018-04-16T02:28:38.433Z,24.20
2018-04-16T02:29:38.354Z,24.20
2018-04-16T02:30:38.356Z,24.20
2018-04-16T02:31:38.354Z,24.20
2018-04-16T02:32:38.360Z,24.20
2018-04-16T02:33:38.435Z,24.20
2018-04-16T02:34:38.363Z,24.20
2018-04-16T02:35:38.359Z,24.20
2018-04-16T02:36:38.360Z,24.20
2018-04-16T02:37:38.329Z,24.20
2018-04-16T02:38:38.406Z,23.60
2018-04-16T02:39:38.404Z,23.60
2018-04-16T02:40:38.529Z,23.60
2018-04-16T02:41:38.457Z,23.60
2018-04-16T02:42:38.457Z,23.60
2018-04-16T02:43:38.404Z,23.60
2018-04-16T02:44:38.442Z,23.60
2018-04-16T02:45:38.434Z,23.60
2018-04-16T02:46:38.443Z,23.60
2018-04-16T02:47:38.410Z,23.60
2018-04-16T02:48:38.358Z,21.80
2018-04-16T02:49:38.466Z,21.80
2018-04-16T02:50:38.431Z,21.80
2018-04-16T02:51:38.365Z,21.80
2018-04-16T02:52:38.435Z,21.80
2018-04-16T02:53:38.366Z,21.80
2018-04-16T02:54:38.433Z,21.80
2018-04-16T02:55:38.438Z,21.80
2018-04-16T02:56:38.366Z,21.80
2018-04-16T02:57:38.443Z,21.80
2018-04-16T02:58:38.367Z,23.00
2018-04-16T02:59:38.443Z,23.00
2018-04-16T03:00:38.391Z,23.00
2018-04-16T03:01:38.373Z,23.00
2018-04-16T03:02:38.439Z,23.00
2018-04-16T03:03:38.444Z,23.00
2018-04-16T03:04:38.366Z,23.00
2018-04-16T03:05:38.440Z,23.00
2018-04-16T03:06:38.365Z,23.00
2018-04-16T03:07:38.456Z,23.00
2018-04-16T03:08:38.399Z,23.40
2018-04-16T03:09:38.381Z,23.40
2018-04-16T03:10:38.455Z,23.40
2018-04-16T03:11:38.462Z,23.40
2018-04-16T03:12:38.350Z,23.40
2018-04-16T03:13:38.486Z,23.40
2018-04-16T03:14:38.350Z,23.40
2018-04-16T03:15:38.387Z,23.40
2018-04-16T03:16:38.354Z,23.40
2018-04-16T03:17:38.461Z,23.40
2018-04-16T03:18:38.404Z,25.30
2018-04-16T03:19:38.387Z,25.30
2018-04-16T03:20:38.405Z,25.30
2018-04-16T03:21:38.465Z,25.30
2018-04-16T03:22:38.405Z,25.30
2018-04-16T03:23:38.467Z,25.30
2018-04-16T03:24:38.466Z,25.30
2018-04-16T03:25:38.405Z,25.30
2018-04-16T03:26:38.394Z,25.30
2018-04-16T03:27:38.355Z,25.30
2018-04-16T03:28:38.460Z,24.40
2018-04-16T03:29:38.460Z,24.40
2018-04-16T03:30:38.432Z,24.40
2018-04-16T03:31:38.428Z,24.40
2018-04-16T03:32:38.370Z,24.40
2018-04-16T03:33:38.473Z,24.40
2018-04-16T03:34:38.445Z,24.40
2018-04-16T03:35:38.410Z,24.40
2018-04-16T03:36:38.467Z,24.40
2018-04-16T03:37:38.389Z,24.40
2018-04-16T03:38:38.412Z,25.40
2018-04-16T03:39:38.466Z,25.40
2018-04-16T03:40:38.398Z,25.40
2018-04-16T03:41:38.398Z,25.40
2018-04-16T03:42:38.467Z,25.40
2018-04-16T03:43:38.393Z,25.40
2018-04-16T03:44:38.468Z,25.40
2018-04-16T03:45:38.427Z,25.40
2018-04-16T03:46:38.424Z,25.40
2018-04-16T03:47:38.467Z,25.40
2018-04-16T03:48:38.479Z,25.80
2018-04-16T03:49:38.484Z,25.80
2018-04-16T03:50:38.484Z,25.80
2018-04-16T03:51:38.480Z,25.80
2018-04-16T03:52:38.484Z,25.80
2018-04-16T03:53:38.409Z,25.80
2018-04-16T03:54:38.416Z,25.80
2018-04-16T03:55:38.417Z,25.80
2018-04-16T03:56:38.509Z,25.80
2018-04-16T03:57:38.411Z,25.80
2018-04-16T03:58:38.479Z,27.50
2018-04-16T03:59:38.388Z,27.50
2018-04-16T04:00:38.483Z,27.50
2018-04-16T04:01:38.480Z,27.50
2018-04-16T04:02:38.557Z,27.50
2018-04-16T04:03:38.542Z,27.50
2018-04-16T04:04:38.509Z,27.50
2018-04-16T04:05:38.459Z,27.50
2018-04-16T04:06:38.425Z,27.50
2018-04-16T04:07:38.519Z,27.50
2018-04-16T04:08:38.512Z,23.90
2018-04-16T04:09:38.465Z,23.90
2018-04-16T04:10:38.489Z,23.90
2018-04-16T04:11:38.485Z,23.90
2018-04-16T04:12:38.409Z,23.90
2018-04-16T04:13:38.462Z,23.90
2018-04-16T04:14:38.530Z,23.90
2018-04-16T04:15:38.411Z,23.90
2018-04-16T04:16:38.461Z,23.90
2018-04-16T04:17:38.461Z,23.90
2018-04-16T04:18:38.462Z,26.30
2018-04-16T04:19:38.433Z,26.30
2018-04-16T04:20:38.521Z,26.30
2018-04-16T04:21:38.465Z,26.30
2018-04-16T04:22:38.468Z,26.30
2018-04-16T04:23:38.541Z,26.30
2018-04-16T04:24:38.414Z,26.30
2018-04-16T04:25:38.495Z,26.30
2018-04-16T04:26:38.534Z,26.30
2018-04-16T04:27:38.468Z,26.30
2018-04-16T04:28:38.475Z,30.40
2018-04-16T04:29:38.425Z,30.40
2018-04-16T04:30:38.437Z,30.40
2018-04-16T04:31:38.507Z,30.40
2018-04-16T04:32:38.539Z,30.40
2018-04-16T04:33:38.562Z,30.40
2018-04-16T04:34:38.469Z,30.40
2018-04-16T04:35:38.432Z,30.40
2018-04-16T04:36:38.509Z,30.40
2018-04-16T04:37:38.571Z,30.40
2018-04-16T04:38:38.451Z,26.80
2018-04-16T04:39:38.512Z,26.80
2018-04-16T04:40:38.452Z,26.80
2018-04-16T04:41:38.518Z,26.80
2018-04-16T04:42:38.516Z,26.80
2018-04-16T04:43:38.446Z,26.80
2018-04-16T04:44:38.443Z,26.80
2018-04-16T04:45:38.441Z,26.80
2018-04-16T04:46:38.526Z,26.80
2018-04-16T04:47:38.410Z,26.80
2018-04-16T04:48:38.453Z,23.60
2018-04-16T04:49:38.407Z,23.60
2018-04-16T04:50:38.411Z,23.60
2018-04-16T04:51:38.421Z,23.60
2018-04-16T04:52:38.452Z,23.60
2018-04-16T04:53:38.411Z,23.60
2018-04-16T04:54:38.500Z,23.60
2018-04-16T04:55:38.423Z,23.60
2018-04-16T04:56:38.500Z,23.60
2018-04-16T04:57:38.449Z,23.60
2018-04-16T04:58:38.561Z,25.40
2018-04-16T04:59:38.546Z,25.40
2018-04-16T05:00:38.524Z,25.40
2018-04-16T05:01:38.450Z,25.40
2018-04-16T05:02:38.529Z,25.40
2018-04-16T05:03:38.531Z,25.40
2018-04-16T05:04:38.549Z,25.40
2018-04-16T05:05:38.543Z,25.40
2018-04-16T05:06:38.555Z,25.40
2018-04-16T05:07:38.505Z,25.40
2018-04-16T05:08:38.473Z,24.00
2018-04-16T05:09:38.442Z,24.00
2018-04-16T05:10:38.432Z,24.00
2018-04-16T05:11:38.385Z,24.00
2018-04-16T05:12:38.484Z,24.00
2018-04-16T05:13:38.434Z,24.00
2018-04-16T05:14:38.479Z,24.00
2018-04-16T05:15:38.478Z,24.00
2018-04-16T05:16:38.387Z,24.00
2018-04-16T05:17:38.485Z,24.00
2018-04-16T05:18:38.532Z,27.00
2018-04-16T05:19:38.493Z,27.00
2018-04-16T05:20:38.521Z,27.00
2018-04-16T05:21:38.438Z,27.00
2018-04-16T05:22:38.519Z,27.00
2018-04-16T05:23:38.572Z,27.00
2018-04-16T05:24:38.523Z,27.00
2018-04-16T05:25:38.437Z,27.00
2018-04-16T05:26:38.483Z,27.00
2018-04-16T05:27:38.577Z,27.00
2018-04-16T05:28:38.526Z,26.80
2018-04-16T05:29:38.530Z,26.80
2018-04-16T05:30:38.456Z,26.80
2018-04-16T05:31:38.444Z,26.80
2018-04-16T05:32:38.529Z,26.80
2018-04-16T05:33:38.533Z,26.80
2018-04-16T05:34:38.449Z,26.80
2018-04-16T05:35:38.536Z,26.80
2018-04-16T05:36:38.457Z,26.80
2018-04-16T05:37:38.537Z,26.80
2018-04-16T05:38:38.508Z,29.50
2018-04-16T05:39:38.546Z,29.50
2018-04-16T05:40:38.514Z,29.50
2018-04-16T05:41:38.584Z,29.50
2018-04-16T05:42:38.579Z,29.50
2018-04-16T05:43:38.542Z,29.50
2018-04-16T05:44:38.539Z,29.50
2018-04-16T05:45:38.552Z,29.50
2018-04-16T05:46:38.508Z,29.50
2018-04-16T05:47:38.548Z,29.50
2018-04-16T05:48:38.488Z,25.30
2018-04-16T05:49:38.506Z,25.30
2018-04-16T05:50:38.544Z,25.30
2018-04-16T05:51:38.539Z,25.30
2018-04-16T05:52:38.423Z,25.30
2018-04-16T05:53:38.543Z,25.30
2018-04-16T05:54:38.543Z,25.30
2018-04-16T05:55:38.548Z,25.30
2018-04-16T05:56:38.543Z,25.30
2018-04-16T05:57:38.460Z,25.30
2018-04-16T05:58:38.550Z,24.40
2018-04-16T05:59:38.515Z,24.40
2018-04-16T06:00:38.490Z,24.40
2018-04-16T06:01:38.460Z,24.40
2018-04-16T06:02:38.466Z,24.40
2018-04-16T06:03:38.553Z,24.40
2018-04-16T06:04:38.479Z,24.40
2018-04-16T06:05:38.511Z,24.40
2018-04-16T06:06:38.526Z,24.40
2018-04-16T06:07:38.467Z,24.40
2018-04-16T06:08:38.595Z,28.70
2018-04-16T06:09:38.570Z,28.70
2018-04-16T06:10:38.525Z,28.70
2018-04-16T06:11:38.491Z,28.70
2018-04-16T06:12:38.526Z,28.70
2018-04-16T06:13:38.623Z,28.70
2018-04-16T06:14:38.507Z,28.70
2018-04-16T06:15:38.507Z,28.70
2018-04-16T06:16:38.503Z,28.70
2018-04-16T06:17:38.527Z,28.70
2018-04-16T06:18:38.589Z,26.50
2018-04-16T06:19:38.542Z,26.50
2018-04-16T06:20:38.507Z,26.50
2018-04-16T06:21:38.493Z,26.50
2018-04-16T06:22:38.545Z,26.50
2018-04-16T06:23:38.595Z,26.50
2018-04-16T06:24:38.534Z,26.50
2018-04-16T06:25:38.542Z,26.50
2018-04-16T06:26:38.572Z,26.50
2018-04-16T06:27:38.550Z,26.50
2018-04-16T06:28:38.600Z,28.60
2018-04-16T06:29:38.584Z,28.60
2018-04-16T06:30:38.600Z,28.60
2018-04-16T06:31:38.498Z,28.60
2018-04-16T06:32:38.512Z,28.60
2018-04-16T06:33:38.479Z,28.60
2018-04-16T06:34:38.493Z,28.60
2018-04-16T06:35:38.584Z,28.60
2018-04-16T06:36:38.634Z,28.60
2018-04-16T06:37:38.504Z,28.60
2018-04-16T06:38:38.518Z,34.90
2018-04-16T06:39:38.554Z,34.90
2018-04-16T06:40:38.455Z,34.90
2018-04-16T06:41:38.544Z,34.90
2018-04-16T06:42:38.482Z,34.90
2018-04-16T06:43:38.535Z,34.90
2018-04-16T06:44:38.562Z,34.90
2018-04-16T06:45:38.564Z,34.90
2018-04-16T06:46:38.539Z,34.90
2018-04-16T06:47:38.588Z,34.90
2018-04-16T06:48:38.567Z,33.99
2018-04-16T06:49:38.478Z,33.99
2018-04-16T06:50:38.561Z,33.99
2018-04-16T06:51:38.519Z,33.99
2018-04-16T06:52:38.639Z,33.99
2018-04-16T06:53:38.463Z,33.99
2018-04-16T06:54:38.573Z,33.99
2018-04-16T06:55:38.490Z,33.99
2018-04-16T06:56:38.575Z,33.99
2018-04-16T06:57:38.487Z,33.99
2018-04-16T06:58:38.603Z,33.40
2018-04-16T06:59:38.590Z,33.40
2018-04-16T07:00:38.523Z,33.40
2018-04-16T07:01:38.484Z,33.40
2018-04-16T07:02:38.525Z,33.40
2018-04-16T07:03:38.598Z,33.40
2018-04-16T07:04:38.529Z,33.40
2018-04-16T07:05:38.601Z,33.40
2018-04-16T07:06:38.526Z,33.40
2018-04-16T07:07:38.529Z,33.40
2018-04-16T07:08:38.558Z,30.70
2018-04-16T07:09:38.610Z,30.70
2018-04-16T07:10:38.625Z,30.70
2018-04-16T07:11:38.502Z,30.70
2018-04-16T07:12:38.624Z,30.70
2018-04-16T07:13:38.575Z,30.70
2018-04-16T07:14:38.507Z,30.70
2018-04-16T07:15:38.617Z,30.70
2018-04-16T07:16:38.657Z,30.70
2018-04-16T07:17:38.574Z,30.70
2018-04-16T07:18:38.561Z,29.99
2018-04-16T07:19:38.633Z,29.99
2018-04-16T07:20:38.602Z,29.99
2018-04-16T07:21:38.630Z,29.99
2018-04-16T07:22:38.570Z,29.99
2018-04-16T07:23:38.573Z,29.99
2018-04-16T07:24:38.608Z,29.99
2018-04-16T07:25:38.542Z,29.99
2018-04-16T07:26:38.649Z,29.99
2018-04-16T07:27:38.544Z,29.99
2018-04-16T07:28:38.531Z,31.10
2018-04-16T07:29:38.579Z,31.10
2018-04-16T07:30:38.647Z,31.10
2018-04-16T07:31:38.583Z,31.10
2018-04-16T07:32:38.623Z,31.10
2018-04-16T07:33:38.593Z,31.10
2018-04-16T07:34:38.554Z,31.10
2018-04-16T07:35:38.646Z,31.10
2018-04-16T07:36:38.652Z,31.10
2018-04-16T07:37:38.582Z,31.10
2018-04-16T07:38:38.543Z,24.80
2018-04-16T07:39:38.546Z,24.80
2018-04-16T07:40:38.548Z,24.80
2018-04-16T07:41:38.624Z,24.80
2018-04-16T07:42:38.572Z,24.80
2018-04-16T07:43:38.517Z,24.80
2018-04-16T07:44:38.559Z,24.80
2018-04-16T07:45:38.552Z,24.80
2018-04-16T07:46:38.551Z,24.80
2018-04-16T07:47:38.625Z,24.80
2018-04-16T07:48:38.551Z,24.80
2018-04-16T07:49:38.589Z,27.30
2018-04-16T07:50:38.547Z,27.30
2018-04-16T07:51:38.620Z,27.30
2018-04-16T07:52:38.592Z,27.30
2018-04-16T07:53:38.652Z,27.30
2018-04-16T07:54:38.690Z,27.30
2018-04-16T07:55:38.596Z,27.30
2018-04-16T07:56:38.664Z,27.30
2018-04-16T07:57:38.611Z,27.30
2018-04-16T07:58:38.668Z,27.30
2018-04-16T07:59:38.551Z,24.60
2018-04-16T08:00:38.659Z,24.60
2018-04-16T08:01:38.558Z,24.60
2018-04-16T08:02:38.654Z,24.60
2018-04-16T08:03:38.660Z,24.60
2018-04-16T08:04:38.597Z,24.60
2018-04-16T08:05:38.652Z,24.60
2018-04-16T08:06:38.670Z,24.60
2018-04-16T08:07:38.692Z,24.60
2018-04-16T08:08:38.561Z,24.60
2018-04-16T08:09:38.636Z,24.70
2018-04-16T08:10:38.714Z,24.70
2018-04-16T08:11:38.637Z,24.70
2018-04-16T08:12:38.556Z,24.70
2018-04-16T08:13:38.541Z,24.70
2018-04-16T08:14:38.560Z,24.70
2018-04-16T08:15:38.637Z,24.70
2018-04-16T08:16:38.675Z,24.70
2018-04-16T08:17:38.663Z,24.70
2018-04-16T08:18:38.675Z,24.70
2018-04-16T08:19:38.563Z,20.90
2018-04-16T08:20:38.581Z,20.90
2018-04-16T08:21:38.550Z,20.90
2018-04-16T08:22:38.675Z,20.90
2018-04-16T08:23:38.620Z,20.90
2018-04-16T08:24:38.607Z,20.90
2018-04-16T08:25:38.613Z,20.90
2018-04-16T08:26:38.606Z,20.90
2018-04-16T08:27:38.648Z,20.90
2018-04-16T08:28:38.629Z,20.90
2018-04-16T08:29:38.691Z,19.50
2018-04-16T08:30:38.678Z,19.50
2018-04-16T08:31:38.676Z,19.50
2018-04-16T08:32:38.679Z,19.50
2018-04-16T08:33:38.567Z,19.50
2018-04-16T08:34:38.557Z,19.50
2018-04-16T08:35:38.574Z,19.50
2018-04-16T08:36:38.692Z,19.50
2018-04-16T08:37:38.691Z,19.50
2018-04-16T08:38:38.693Z,19.50
2018-04-16T08:39:38.550Z,18.00
2018-04-16T08:40:38.585Z,18.00
2018-04-16T08:41:38.617Z,18.00
2018-04-16T08:42:38.552Z,18.00
2018-04-16T08:43:38.643Z,18.00
2018-04-16T08:44:38.551Z,18.00
2018-04-16T08:45:38.559Z,18.00
2018-04-16T08:46:38.525Z,18.00
2018-04-16T08:47:38.555Z,18.00
2018-04-16T08:48:38.554Z,18.00
2018-04-16T08:49:38.576Z,16.50
2018-04-16T08:50:38.604Z,16.50
2018-04-16T08:51:38.659Z,16.50
2018-04-16T08:52:38.677Z,16.50
2018-04-16T08:53:38.670Z,16.50
2018-04-16T08:54:38.623Z,16.50
2018-04-16T08:55:38.661Z,16.50
2018-04-16T08:56:38.653Z,16.50
2018-04-16T08:57:38.615Z,16.50
2018-04-16T08:58:38.661Z,16.50
2018-04-16T08:59:38.610Z,16.20
2018-04-16T09:00:38.621Z,16.20
2018-04-16T09:01:38.622Z,16.20
2018-04-16T09:02:38.666Z,16.20
2018-04-16T09:03:38.604Z,16.20
2018-04-16T09:04:38.677Z,16.20
2018-04-16T09:05:38.604Z,16.20
2018-04-16T09:06:38.601Z,16.20
2018-04-16T09:07:38.675Z,16.20
2018-04-16T09:08:38.603Z,16.20
2018-04-16T09:09:38.621Z,12.00
2018-04-16T09:10:38.620Z,12.00
2018-04-16T09:11:38.574Z,12.00
2018-04-16T09:12:38.551Z,12.00
2018-04-16T09:13:38.643Z,12.00
2018-04-16T09:14:38.582Z,12.00
2018-04-16T09:15:38.585Z,12.00
2018-04-16T09:16:38.533Z,12.00
2018-04-16T09:17:38.625Z,12.00
2018-04-16T09:18:38.536Z,12.00
2018-04-16T09:19:38.644Z,12.90
2018-04-16T09:20:38.759Z,12.90
2018-04-16T09:21:38.662Z,12.90
2018-04-16T09:22:38.608Z,12.90
2018-04-16T09:23:38.698Z,12.90
2018-04-16T09:24:38.652Z,12.90
2018-04-16T09:25:38.719Z,12.90
2018-04-16T09:26:38.709Z,12.90
2018-04-16T09:27:38.684Z,12.90
2018-04-16T09:28:38.679Z,12.90
2018-04-16T09:29:38.595Z,13.50
2018-04-16T09:30:38.729Z,13.50
2018-04-16T09:31:38.662Z,13.50
2018-04-16T09:32:38.695Z,13.50
2018-04-16T09:33:38.726Z,13.50
2018-04-16T09:34:38.765Z,13.50
2018-04-16T09:35:38.714Z,13.50
2018-04-16T09:36:38.721Z,13.50
2018-04-16T09:37:38.594Z,13.50
2018-04-16T09:38:38.730Z,13.50
2018-04-16T09:39:38.656Z,10.10
2018-04-16T09:40:38.624Z,10.10
2018-04-16T09:41:38.708Z,10.10
2018-04-16T09:42:38.697Z,10.10
2018-04-16T09:43:38.628Z,10.10
2018-04-16T09:44:38.581Z,10.10
2018-04-16T09:45:38.708Z,10.10
2018-04-16T09:46:38.694Z,10.10
2018-04-16T09:47:38.629Z,10.10
2018-04-16T09:48:38.702Z,10.10
2018-04-16T09:49:38.715Z,13.50
2018-04-16T09:50:38.671Z,13.50
2018-04-16T09:51:38.596Z,13.50
2018-04-16T09:52:38.660Z,13.50
2018-04-16T09:53:38.679Z,13.50
2018-04-16T09:54:38.658Z,13.50
2018-04-16T09:55:38.735Z,13.50
2018-04-16T09:56:38.726Z,13.50
2018-04-16T09:57:38.674Z,13.50
2018-04-16T09:58:38.679Z,13.50
2018-04-16T09:59:38.712Z,9.90
2018-04-16T10:00:38.644Z,9.90
2018-04-16T10:01:38.711Z,9.90
2018-04-16T10:02:38.638Z,9.90
2018-04-16T10:03:38.710Z,9.90
2018-04-16T10:04:38.709Z,9.90
2018-04-16T10:05:38.648Z,9.90
2018-04-16T10:06:38.641Z,9.90
2018-04-16T10:07:38.597Z,9.90
2018-04-16T10:08:38.712Z,9.90
2018-04-16T10:09:38.741Z,8.50
2018-04-16T10:10:38.711Z,8.50
2018-04-16T10:11:38.688Z,8.50
2018-04-16T10:12:38.731Z,8.50
2018-04-16T10:13:38.690Z,8.50
2018-04-16T10:14:38.718Z,8.50
2018-04-16T10:15:38.712Z,8.50
2018-04-16T10:16:38.689Z,8.50
2018-04-16T10:17:38.716Z,8.50
2018-04-16T10:18:38.681Z,8.50
2018-04-16T10:19:38.649Z,9.30
2018-04-16T10:20:38.721Z,9.30
2018-04-16T10:21:38.651Z,9.30
2018-04-16T10:22:38.720Z,9.30
2018-04-16T10:23:38.721Z,9.30
2018-04-16T10:24:38.651Z,9.30
2018-04-16T10:25:38.722Z,9.30
2018-04-16T10:26:38.620Z,9.30
2018-04-16T10:27:38.657Z,9.30
2018-04-16T10:28:38.731Z,9.30
2018-04-16T10:29:38.656Z,10.20
2018-04-16T10:30:38.725Z,10.20
2018-04-16T10:31:38.730Z,10.20
2018-04-16T10:32:38.660Z,10.20
2018-04-16T10:33:38.663Z,10.20
2018-04-16T10:34:38.664Z,10.20
2018-04-16T10:35:38.707Z,10.20
2018-04-16T10:36:38.655Z,10.20
2018-04-16T10:37:38.737Z,10.20
2018-04-16T10:38:38.668Z,10.20
2018-04-16T10:39:38.707Z,9.90
2018-04-16T10:40:38.730Z,9.90
2018-04-16T10:41:38.757Z,9.90
2018-04-16T10:42:38.718Z,9.90
2018-04-16T10:43:38.711Z,9.90
2018-04-16T10:44:38.741Z,9.90
2018-04-16T10:45:38.734Z,9.90
2018-04-16T10:46:38.779Z,9.90
2018-04-16T10:47:38.639Z,9.90
2018-04-16T10:48:38.658Z,9.90
2018-04-16T10:49:38.759Z,9.40
2018-04-16T10:50:38.739Z,9.40
2018-04-16T10:51:38.700Z,9.40
2018-04-16T10:52:38.760Z,9.40
2018-04-16T10:53:38.736Z,9.40
2018-04-16T10:54:38.711Z,9.40
2018-04-16T10:55:38.721Z,9.40
2018-04-16T10:56:38.764Z,9.40
2018-04-16T10:57:38.736Z,9.40
2018-04-16T10:58:38.713Z,9.40
2018-04-16T10:59:38.732Z,8.00
2018-04-16T11:00:38.646Z,8.00
2018-04-16T11:01:38.737Z,8.00
2018-04-16T11:02:38.698Z,8.00
2018-04-16T11:03:38.650Z,8.00
2018-04-16T11:04:38.685Z,8.00
2018-04-16T11:05:38.744Z,8.00
2018-04-16T11:06:38.674Z,8.00
2018-04-16T11:07:38.653Z,8.00
2018-04-16T11:08:38.742Z,8.00
2018-04-16T11:09:38.703Z,6.80
2018-04-16T11:10:38.673Z,6.80
2018-04-16T11:11:38.707Z,6.80
2018-04-16T11:12:38.775Z,6.80
2018-04-16T11:13:38.790Z,6.80
2018-04-16T11:14:38.706Z,6.80
2018-04-16T11:15:38.719Z,6.80
2018-04-16T11:16:38.795Z,6.80
2018-04-16T11:17:38.725Z,6.80
2018-04-16T11:18:38.755Z,6.80
2018-04-16T11:19:38.752Z,7.40
2018-04-16T11:20:38.688Z,7.40
2018-04-16T11:21:38.689Z,7.40
2018-04-16T11:22:38.757Z,7.40
2018-04-16T11:23:38.686Z,7.40
2018-04-16T11:24:38.760Z,7.40
2018-04-16T11:25:38.693Z,7.40
2018-04-16T11:26:38.705Z,7.40
2018-04-16T11:27:38.759Z,7.40
2018-04-16T11:28:38.691Z,7.40
2018-04-16T11:29:38.753Z,8.60
2018-04-16T11:30:38.669Z,8.60
2018-04-16T11:31:38.631Z,8.60
2018-04-16T11:32:38.646Z,8.60
2018-04-16T11:33:38.644Z,8.60
2018-04-16T11:34:38.715Z,8.60
2018-04-16T11:35:38.755Z,8.60
2018-04-16T11:36:38.764Z,8.60
2018-04-16T11:37:38.667Z,8.60
2018-04-16T11:38:38.667Z,8.60
2018-04-16T11:39:38.775Z,5.30
2018-04-16T11:40:38.627Z,5.30
2018-04-16T11:41:38.634Z,5.30
2018-04-16T11:42:38.755Z,5.30
2018-04-16T11:43:38.661Z,5.30
2018-04-16T11:44:38.730Z,5.30
2018-04-16T11:45:38.772Z,5.30
2018-04-16T11:46:38.716Z,5.30
2018-04-16T11:47:38.758Z,5.30
2018-04-16T11:48:38.665Z,5.30
2018-04-16T11:49:38.744Z,6.60
2018-04-16T11:50:38.742Z,6.60
2018-04-16T11:51:38.741Z,6.60
2018-04-16T11:52:38.743Z,6.60
2018-04-16T11:53:38.714Z,6.60
2018-04-16T11:54:38.730Z,6.60
2018-04-16T11:55:38.740Z,6.60
2018-04-16T11:56:38.738Z,6.60
2018-04-16T11:57:38.814Z,6.60
2018-04-16T11:58:38.742Z,6.60
2018-04-16T11:59:38.783Z,4.20
2018-04-16T12:00:38.780Z,4.20
2018-04-16T12:01:38.713Z,4.20
2018-04-16T12:02:38.785Z,4.20
2018-04-16T12:03:38.717Z,4.20
2018-04-16T12:04:38.747Z,4.20
2018-04-16T12:05:38.784Z,4.20
2018-04-16T12:06:38.721Z,4.20
2018-04-16T12:07:38.786Z,4.20
2018-04-16T12:08:38.720Z,4.20
2018-04-16T12:09:38.726Z,3.50
2018-04-16T12:10:38.817Z,3.50
2018-04-16T12:11:38.740Z,3.50
2018-04-16T12:12:38.806Z,3.50
2018-04-16T12:13:38.763Z,3.50
2018-04-16T12:14:38.772Z,3.50
2018-04-16T12:15:38.788Z,3.50
2018-04-16T12:16:38.843Z,3.50
2018-04-16T12:17:38.713Z,3.50
2018-04-16T12:18:38.757Z,3.50
2018-04-16T12:19:38.770Z,3.70
2018-04-16T12:20:38.826Z,3.70
2018-04-16T12:21:38.697Z,3.70
2018-04-16T12:22:38.763Z,3.70
2018-04-16T12:23:38.762Z,3.70
2018-04-16T12:25:38.834Z,3.70
2018-04-16T12:26:38.813Z,3.70
2018-04-16T12:27:38.820Z,3.70
2018-04-16T12:28:38.827Z,3.70
2018-04-16T12:29:38.687Z,2.80
2018-04-16T12:30:38.707Z,2.80
2018-04-16T12:31:38.758Z,2.80
2018-04-16T12:32:38.793Z,2.80
2018-04-16T12:33:38.735Z,2.80
2018-04-16T12:34:38.735Z,2.80
2018-04-16T12:35:38.805Z,2.80
2018-04-16T12:36:38.797Z,2.80
2018-04-16T12:37:38.675Z,2.80
2018-04-16T12:38:38.692Z,2.80
2018-04-16T12:39:38.878Z,2.20
2018-04-16T12:40:38.849Z,2.20
2018-04-16T12:41:38.807Z,2.20
2018-04-16T12:42:38.739Z,2.20
2018-04-16T12:43:38.829Z,2.20
2018-04-16T12:44:38.812Z,2.20
2018-04-16T12:45:38.745Z,2.20
2018-04-16T12:46:38.742Z,2.20
2018-04-16T12:47:38.812Z,2.20
2018-04-16T12:48:38.814Z,2.20
2018-04-16T12:49:38.845Z,2.20
2018-04-16T12:50:38.834Z,2.20
2018-04-16T12:51:38.832Z,2.20
2018-04-16T12:52:38.780Z,2.20
2018-04-16T12:53:38.733Z,2.20
2018-04-16T12:54:38.850Z,2.20
2018-04-16T12:55:38.721Z,2.20
2018-04-16T12:56:38.782Z,2.20
2018-04-16T12:57:38.843Z,2.20
2018-04-16T12:58:38.833Z,2.20
2018-04-16T12:59:38.717Z,2.90